createdAt,value
2018-10-17T00:02:07.714Z,14.78
2018-10-17T00:04:35.787Z,14.75
2018-10-17T00:07:03.934Z,14.70
2018-10-17T00:09:31.967Z,14.71
2018-10-17T00:12:00.047Z,14.63
2018-10-17T00:14:28.230Z,14.57
2018-10-17T00:16:56.319Z,14.55
2018-10-17T00:19:24.426Z,14.51
2018-10-17T00:21:52.500Z,14.48
2018-10-17T00:24:20.582Z,14.46
2018-10-17T00:26:48.983Z,14.43
2018-10-17T00:29:17.122Z,14.41
2018-10-17T00:31:45.191Z,14.39
2018-10-17T00:34:13.282Z,14.35
2018-10-17T00:36:41.353Z,14.32
2018-10-17T00:39:10.788Z,14.31
2018-10-17T00:41:44.350Z,14.29
2018-10-17T00:44:12.430Z,14.27
2018-10-17T00:46:40.502Z,14.24
2018-10-17T00:49:08.619Z,14.21
2018-10-17T00:51:36.666Z,14.20
2018-10-17T00:54:04.959Z,14.15
2018-10-17T00:56:33.031Z,14.11
2018-10-17T00:59:09.215Z,14.08
2018-10-17T01:01:37.770Z,14.04
2018-10-17T01:04:06.367Z,14.01
2018-10-17T01:06:34.751Z,14.00
2018-10-17T01:09:06.018Z,13.97
2018-10-17T01:11:34.227Z,13.95
2018-10-17T01:14:02.435Z,13.93
2018-10-17T01:16:30.559Z,13.89
2018-10-17T01:18:58.679Z,13.87
2018-10-17T01:21:26.963Z,13.85
2018-10-17T01:23:55.083Z,13.83
2018-10-17T01:26:23.414Z,13.79
2018-10-17T01:28:51.992Z,13.74
2018-10-17T01:31:20.145Z,13.69
2018-10-17T01:33:48.218Z,13.66
2018-10-17T01:36:16.423Z,13.63
2018-10-17T01:38:44.495Z,13.59
2018-10-17T01:41:12.598Z,13.58
2018-10-17T01:43:40.933Z,13.55
2018-10-17T01:46:09.019Z,13.53
2018-10-17T01:48:37.098Z,13.50
2018-10-17T01:51:05.371Z,13.49
2018-10-17T01:53:33.459Z,13.47
2018-10-17T01:56:01.535Z,13.45
2018-10-17T01:58:29.672Z,13.41
2018-10-17T02:00:58.064Z,13.37
2018-10-17T02:03:26.041Z,13.32
2018-10-17T02:05:54.154Z,13.29
2018-10-17T02:08:22.585Z,13.27
2018-10-17T02:10:50.682Z,13.27
2018-10-17T02:13:21.619Z,13.24
2018-10-17T02:15:50.699Z,13.20
2018-10-17T02:18:18.977Z,13.19
2018-10-17T02:20:47.039Z,13.19
2018-10-17T02:23:15.245Z,13.19
2018-10-17T02:25:43.393Z,13.18
2018-10-17T02:28:11.463Z,13.18
2018-10-17T02:30:39.529Z,13.16
2018-10-17T02:33:07.603Z,13.16
2018-10-17T02:35:35.727Z,13.15
2018-10-17T02:38:03.803Z,13.13
2018-10-17T02:40:31.862Z,13.13
2018-10-17T02:42:59.951Z,13.10
2018-10-17T02:45:28.015Z,13.09
2018-10-17T02:47:56.088Z,13.07
2018-10-17T02:50:24.151Z,13.07
2018-10-17T02:52:52.270Z,13.05
2018-10-17T02:55:20.322Z,13.04
2018-10-17T02:57:48.488Z,13.02
2018-10-17T03:00:16.553Z,13.01
2018-10-17T03:02:44.622Z,12.97
2018-10-17T03:05:12.738Z,12.94
2018-10-17T03:07:40.792Z,12.92
2018-10-17T03:10:08.953Z,12.90
2018-10-17T03:12:37.039Z,12.88
2018-10-17T03:15:05.661Z,12.86
2018-10-17T03:17:33.752Z,12.84
2018-10-17T03:20:01.826Z,12.80
2018-10-17T03:22:29.913Z,12.80
2018-10-17T03:24:58.081Z,12.76
2018-10-17T03:27:26.186Z,12.72
2018-10-17T03:29:54.256Z,12.69
2018-10-17T03:32:22.327Z,12.64
2018-10-17T03:34:50.423Z,12.58
2018-10-17T03:37:18.538Z,12.55
2018-10-17T03:39:46.587Z,12.53
2018-10-17T03:42:14.659Z,12.50
2018-10-17T03:44:42.756Z,12.50
2018-10-17T03:47:10.884Z,12.49
2018-10-17T03:49:38.946Z,12.49
2018-10-17T03:52:06.983Z,12.47
2018-10-17T03:54:35.091Z,12.45
2018-10-17T03:57:03.163Z,12.46
2018-10-17T03:59:31.307Z,12.43
2018-10-17T04:01:59.322Z,12.43
2018-10-17T04:04:27.475Z,12.45
2018-10-17T04:06:55.552Z,12.46
2018-10-17T04:09:23.642Z,12.49
2018-10-17T04:11:51.713Z,12.53
2018-10-17T04:14:19.794Z,12.56
2018-10-17T04:16:47.866Z,12.60
2018-10-17T04:19:15.966Z,12.66
2018-10-17T04:21:44.056Z,12.67
2018-10-17T04:24:12.139Z,12.66
2018-10-17T04:26:40.211Z,12.64
2018-10-17T04:29:08.303Z,12.59
2018-10-17T04:31:36.370Z,12.56
2018-10-17T04:34:04.554Z,12.51
2018-10-17T04:36:32.631Z,12.46
2018-10-17T04:39:00.719Z,12.43
2018-10-17T04:41:28.790Z,12.41
2018-10-17T04:43:56.875Z,12.38
2018-10-17T04:46:24.963Z,12.35
2018-10-17T04:48:53.061Z,12.31
2018-10-17T04:51:21.128Z,12.29
2018-10-17T04:53:49.208Z,12.30
2018-10-17T04:56:17.310Z,12.25
2018-10-17T04:58:45.382Z,12.24
2018-10-17T05:01:13.499Z,12.26
2018-10-17T05:03:41.542Z,12.30
2018-10-17T05:06:09.695Z,12.34
2018-10-17T05:08:37.915Z,12.37
2018-10-17T05:11:06.428Z,12.40
2018-10-17T05:13:34.471Z,12.43
2018-10-17T05:16:02.543Z,12.45
2018-10-17T05:18:30.629Z,12.46
2018-10-17T05:20:58.701Z,12.47
2018-10-17T05:23:26.765Z,12.49
2018-10-17T05:25:54.885Z,12.50
2018-10-17T05:28:22.957Z,12.52
2018-10-17T05:30:51.104Z,12.54
2018-10-17T05:33:19.184Z,12.52
2018-10-17T05:35:47.484Z,12.53
2018-10-17T05:38:15.548Z,12.52
2018-10-17T05:40:43.629Z,12.51
2018-10-17T05:43:11.789Z,12.49
2018-10-17T05:45:39.765Z,12.48
2018-10-17T05:48:07.838Z,12.49
2018-10-17T05:50:36.059Z,12.51
2018-10-17T05:53:04.411Z,12.54
2018-10-17T05:55:32.433Z,12.56
2018-10-17T05:58:00.686Z,12.60
2018-10-17T06:00:28.751Z,12.65
2018-10-17T06:02:56.822Z,12.67
2018-10-17T06:05:24.882Z,12.67
2018-10-17T06:07:53.037Z,12.69
2018-10-17T06:10:21.261Z,12.69
2018-10-17T06:12:49.179Z,12.68
2018-10-17T06:15:17.245Z,12.68
2018-10-17T06:17:45.385Z,12.70
2018-10-17T06:20:13.410Z,12.68
2018-10-17T06:22:41.503Z,12.68
2018-10-17T06:25:10.219Z,12.72
2018-10-17T06:27:38.188Z,12.75
2018-10-17T06:30:07.688Z,12.76
2018-10-17T06:32:35.770Z,12.71
2018-10-17T06:35:03.850Z,12.66
2018-10-17T06:37:31.906Z,12.61
2018-10-17T06:39:59.971Z,12.56
2018-10-17T06:42:28.056Z,12.61
2018-10-17T06:44:56.119Z,12.61
2018-10-17T06:47:24.250Z,12.60
2018-10-17T06:49:52.333Z,12.63
2018-10-17T06:52:20.416Z,12.65
2018-10-17T06:54:48.487Z,12.71
2018-10-17T06:57:16.641Z,12.73
2018-10-17T06:59:44.883Z,12.80
2018-10-17T07:02:12.998Z,12.88
2018-10-17T07:04:41.023Z,12.97
2018-10-17T07:07:09.163Z,13.05
2018-10-17T07:09:37.197Z,13.10
2018-10-17T07:12:05.780Z,13.15
2018-10-17T07:14:33.860Z,13.23
2018-10-17T07:17:01.984Z,13.29
2018-10-17T07:19:30.030Z,13.35
2018-10-17T07:21:58.336Z,13.38
2018-10-17T07:24:26.422Z,13.42
2018-10-17T07:26:54.500Z,13.45
2018-10-17T07:29:22.687Z,13.51
2018-10-17T07:31:50.660Z,13.52
2018-10-17T07:34:18.763Z,13.64
2018-10-17T07:36:46.837Z,13.50
2018-10-17T07:39:14.927Z,13.51
2018-10-17T07:41:43.073Z,13.47
2018-10-17T07:44:11.159Z,13.45
2018-10-17T07:46:39.362Z,13.53
2018-10-17T07:49:07.453Z,13.55
2018-10-17T07:51:35.519Z,13.55
2018-10-17T07:54:03.694Z,13.58
2018-10-17T07:56:31.697Z,13.44
2018-10-17T07:58:59.781Z,13.42
2018-10-17T08:01:27.840Z,13.35
2018-10-17T08:03:55.974Z,13.28
2018-10-17T08:06:23.983Z,13.31
2018-10-17T08:08:52.050Z,13.31
2018-10-17T08:11:20.138Z,13.35
2018-10-17T08:13:48.222Z,13.44
2018-10-17T08:16:16.323Z,13.56
2018-10-17T08:18:44.407Z,13.67
2018-10-17T08:21:12.765Z,13.87
2018-10-17T08:23:40.815Z,13.82
2018-10-17T08:26:08.899Z,13.69
2018-10-17T08:28:37.004Z,13.66
2018-10-17T08:31:05.092Z,13.72
2018-10-17T08:33:33.164Z,13.82
2018-10-17T08:36:01.387Z,13.74
2018-10-17T08:38:29.331Z,13.83
2018-10-17T08:40:57.508Z,13.86
2018-10-17T08:43:25.515Z,13.95
2018-10-17T08:45:53.600Z,14.04
2018-10-17T08:48:21.689Z,14.11
2018-10-17T08:50:49.880Z,14.21
2018-10-17T08:53:17.878Z,14.29
2018-10-17T08:55:45.959Z,14.37
2018-10-17T08:58:14.031Z,14.46
2018-10-17T09:00:42.136Z,14.63
2018-10-17T09:03:10.204Z,14.59
2018-10-17T09:05:38.295Z,14.72
2018-10-17T09:08:06.584Z,14.74
2018-10-17T09:10:34.658Z,14.81
2018-10-17T09:13:02.924Z,14.95
2018-10-17T09:15:31.015Z,15.03
2018-10-17T09:17:59.126Z,15.12
2018-10-17T09:20:27.443Z,15.28
2018-10-17T09:22:55.215Z,15.34
2018-10-17T09:25:23.329Z,15.46
2018-10-17T09:27:51.436Z,15.67
2018-10-17T09:30:19.677Z,15.68
2018-10-17T09:32:47.555Z,15.77
2018-10-17T09:35:15.632Z,15.86
2018-10-17T09:37:43.698Z,16.00
2018-10-17T09:40:12.141Z,16.11
2018-10-17T09:42:40.963Z,16.22
2018-10-17T09:45:09.810Z,16.32
2018-10-17T09:47:37.884Z,16.40
2018-10-17T09:50:06.980Z,16.50
2018-10-17T09:52:35.059Z,16.60
2018-10-17T09:55:03.234Z,16.72
2018-10-17T09:57:31.303Z,16.82
2018-10-17T09:59:59.395Z,16.94
2018-10-17T10:02:27.537Z,17.02
2018-10-17T10:04:55.510Z,17.12
2018-10-17T10:07:23.585Z,17.31
2018-10-17T10:09:51.748Z,17.36
2018-10-17T10:12:19.769Z,17.47
2018-10-17T10:14:47.845Z,17.51
2018-10-17T10:17:16.033Z,17.65
2018-10-17T10:19:44.008Z,17.68
2018-10-17T10:22:12.143Z,17.83
2018-10-17T10:24:40.215Z,17.94
2018-10-17T10:27:08.255Z,17.97
2018-10-17T10:29:36.448Z,18.04
2018-10-17T10:32:04.459Z,18.15
2018-10-17T10:34:32.883Z,18.21
2018-10-17T10:37:00.919Z,18.33
2018-10-17T10:39:29.254Z,18.41
2018-10-17T10:41:57.311Z,18.49
2018-10-17T10:44:25.455Z,18.61
2018-10-17T10:46:53.620Z,18.68
2018-10-17T10:49:21.712Z,18.75
2018-10-17T10:51:49.793Z,18.93
2018-10-17T10:54:17.890Z,19.06
2018-10-17T10:56:46.269Z,19.19
2018-10-17T10:59:14.474Z,19.35
2018-10-17T11:01:42.439Z,19.41
2018-10-17T11:04:10.531Z,19.49
2018-10-17T11:06:38.712Z,19.59
2018-10-17T11:09:07.642Z,19.68
2018-10-17T11:11:35.799Z,19.82
2018-10-17T11:14:04.091Z,19.95
2018-10-17T11:16:32.080Z,20.01
2018-10-17T11:19:00.228Z,20.08
2018-10-17T11:21:28.292Z,20.17
2018-10-17T11:23:56.371Z,20.23
2018-10-17T11:26:24.435Z,20.30
2018-10-17T11:28:52.758Z,20.37
2018-10-17T11:31:20.871Z,20.44
2018-10-17T11:33:48.951Z,20.49
2018-10-17T11:36:17.018Z,20.56
2018-10-17T11:38:45.095Z,20.64
2018-10-17T11:41:13.310Z,20.74
2018-10-17T11:43:41.334Z,20.80
2018-10-17T11:46:09.399Z,20.83
2018-10-17T11:48:37.469Z,20.86
2018-10-17T11:51:05.891Z,20.91
2018-10-17T11:53:33.939Z,20.98
2018-10-17T11:56:02.474Z,21.02
2018-10-17T11:58:30.743Z,21.09
2018-10-17T12:00:58.827Z,21.15
2018-10-17T12:03:26.954Z,21.24
2018-10-17T12:05:55.119Z,21.35
2018-10-17T12:08:23.029Z,21.44
2018-10-17T12:10:51.193Z,21.53
2018-10-17T12:13:19.350Z,21.60
2018-10-17T12:15:47.444Z,21.68
2018-10-17T12:18:15.665Z,21.75
2018-10-17T12:20:43.783Z,21.79
2018-10-17T12:23:12.063Z,21.79
2018-10-17T12:25:40.206Z,21.78
2018-10-17T12:28:08.405Z,21.75
2018-10-17T12:30:36.380Z,21.75
2018-10-17T12:33:04.468Z,21.77
2018-10-17T12:35:32.612Z,21.79
2018-10-17T12:38:00.686Z,21.82
2018-10-17T12:40:29.015Z,21.86
2018-10-17T12:42:56.933Z,21.89
2018-10-17T12:45:25.063Z,21.91
2018-10-17T12:47:53.097Z,21.94
2018-10-17T12:50:21.316Z,21.96
2018-10-17T12:52:49.518Z,21.97
2018-10-17T12:55:17.549Z,22.00
2018-10-17T12:57:45.562Z,22.01
2018-10-17T13:00:13.633Z,22.01
2018-10-17T13:02:41.844Z,22.03
2018-10-17T13:05:10.732Z,22.04
2018-10-17T13:07:39.032Z,22.05
2018-10-17T13:10:08.317Z,22.07
2018-10-17T13:12:36.409Z,22.11
2018-10-17T13:15:05.416Z,22.13
2018-10-17T13:17:33.488Z,22.16
2018-10-17T13:20:01.587Z,22.17
2018-10-17T13:22:29.676Z,22.21
2018-10-17T13:24:57.858Z,22.20
2018-10-17T13:27:25.933Z,22.22
2018-10-17T13:29:54.006Z,22.25
2018-10-17T13:32:22.184Z,22.29
2018-10-17T13:34:50.254Z,22.31
2018-10-17T13:37:18.451Z,22.30
2018-10-17T13:39:46.415Z,22.28
2018-10-17T13:42:14.567Z,22.25
2018-10-17T13:44:42.591Z,22.23
2018-10-17T13:47:10.777Z,22.21
2018-10-17T13:49:38.896Z,22.21
2018-10-17T13:52:06.951Z,22.21
2018-10-17T13:54:35.148Z,22.22
2018-10-17T13:57:03.340Z,22.25
2018-10-17T13:59:31.506Z,22.27
2018-10-17T14:01:59.630Z,22.27
2018-10-17T14:04:27.761Z,22.24
2018-10-17T14:06:55.972Z,22.23
2018-10-17T14:09:24.063Z,22.21
2018-10-17T14:11:52.258Z,22.21
2018-10-17T14:14:20.290Z,22.20
2018-10-17T14:16:48.442Z,22.18
2018-10-17T14:19:16.521Z,22.18
2018-10-17T14:21:44.600Z,22.15
2018-10-17T14:24:12.710Z,22.12
2018-10-17T14:26:40.726Z,22.08
2018-10-17T14:29:08.794Z,22.04
2018-10-17T14:31:36.886Z,22.03
2018-10-17T14:34:05.358Z,21.99
2018-10-17T14:36:33.454Z,21.99
2018-10-17T14:39:01.645Z,21.96
2018-10-17T14:41:29.608Z,21.94
2018-10-17T14:43:57.682Z,21.93
2018-10-17T14:46:25.754Z,21.89
2018-10-17T14:48:53.831Z,21.87
2018-10-17T14:51:21.895Z,21.84
2018-10-17T14:53:49.968Z,21.83
2018-10-17T14:56:18.206Z,21.82
2018-10-17T14:58:46.406Z,21.78
2018-10-17T15:01:14.465Z,21.75
2018-10-17T15:03:42.538Z,21.70
2018-10-17T15:06:10.600Z,21.64
2018-10-17T15:08:38.675Z,21.58
2018-10-17T15:11:06.860Z,21.51
2018-10-17T15:13:34.814Z,21.47
2018-10-17T15:16:02.874Z,21.41
2018-10-17T15:18:30.946Z,21.36
2018-10-17T15:20:59.184Z,21.30
2018-10-17T15:23:27.623Z,21.23
2018-10-17T15:25:55.686Z,21.19
2018-10-17T15:28:23.886Z,21.13
2018-10-17T15:30:51.955Z,21.06
2018-10-17T15:33:20.150Z,21.00
2018-10-17T15:35:48.181Z,20.93
2018-10-17T15:38:16.245Z,20.87
2018-10-17T15:40:44.346Z,20.80
2018-10-17T15:43:12.628Z,20.73
2018-10-17T15:45:40.890Z,20.65
2018-10-17T15:48:09.042Z,20.57
2018-10-17T15:50:37.317Z,20.48
2018-10-17T15:53:05.561Z,20.39
2018-10-17T15:55:33.979Z,20.30
2018-10-17T15:58:02.368Z,20.24
2018-10-17T16:00:30.439Z,20.15
2018-10-17T16:02:58.590Z,20.06
2018-10-17T16:05:26.650Z,19.97
2018-10-17T16:07:54.685Z,19.89
2018-10-17T16:10:22.777Z,19.82
2018-10-17T16:12:51.241Z,19.72
2018-10-17T16:15:19.287Z,19.65
2018-10-17T16:17:47.357Z,19.58
2018-10-17T16:20:15.491Z,19.51
2018-10-17T16:22:43.544Z,19.42
2018-10-17T16:25:11.586Z,19.35
2018-10-17T16:27:39.668Z,19.28
2018-10-17T16:30:09.757Z,19.20
2018-10-17T16:32:37.870Z,19.12
2018-10-17T16:35:06.436Z,19.05
2018-10-17T16:37:34.682Z,18.98
2018-10-17T16:40:02.646Z,18.92
2018-10-17T16:42:30.727Z,18.86
2018-10-17T16:44:58.871Z,18.77
2018-10-17T16:47:26.997Z,18.72
2018-10-17T16:49:55.196Z,18.64
2018-10-17T16:52:23.195Z,18.60
2018-10-17T16:54:51.268Z,18.54
2018-10-17T16:57:19.381Z,18.48
2018-10-17T16:59:47.435Z,18.43
2018-10-17T17:02:15.603Z,18.37
2018-10-17T17:04:43.687Z,18.33
2018-10-17T17:07:11.853Z,18.25
2018-10-17T17:09:39.947Z,18.19
2018-10-17T17:12:08.050Z,18.16
2018-10-17T17:14:36.177Z,18.11
2018-10-17T17:17:04.217Z,18.07
2018-10-17T17:19:32.648Z,18.04
2018-10-17T17:22:00.813Z,18.00
2018-10-17T17:24:28.890Z,17.97
2018-10-17T17:26:57.018Z,17.95
2018-10-17T17:29:25.096Z,17.89
2018-10-17T17:31:53.166Z,17.86
2018-10-17T17:34:21.362Z,17.82
2018-10-17T17:36:49.461Z,17.77
2018-10-17T17:39:17.595Z,17.72
2018-10-17T17:41:45.679Z,17.68
2018-10-17T17:44:13.757Z,17.61
2018-10-17T17:46:41.944Z,17.59
2018-10-17T17:49:09.975Z,17.54
2018-10-17T17:51:38.158Z,17.49
2018-10-17T17:54:06.547Z,17.44
2018-10-17T17:56:34.623Z,17.41
2018-10-17T17:59:02.845Z,17.38
2018-10-17T18:01:30.924Z,17.36
2018-10-17T18:03:59.087Z,17.34
2018-10-17T18:06:27.166Z,17.31
2018-10-17T18:08:55.287Z,17.28
2018-10-17T18:11:24.733Z,17.26
2018-10-17T18:13:53.944Z,17.23
2018-10-17T18:16:22.044Z,17.20
2018-10-17T18:18:50.205Z,17.14
2018-10-17T18:21:18.279Z,17.10
2018-10-17T18:23:46.384Z,17.06
2018-10-17T18:26:14.828Z,17.00
2018-10-17T18:28:43.390Z,16.97
2018-10-17T18:31:11.685Z,16.92
2018-10-17T18:33:39.783Z,16.89
2018-10-17T18:36:07.989Z,16.84
2018-10-17T18:38:36.982Z,16.80
2018-10-17T18:41:05.188Z,16.78
2018-10-17T18:43:33.316Z,16.75
2018-10-17T18:46:01.395Z,16.73
2018-10-17T18:48:29.478Z,16.69
2018-10-17T18:50:57.712Z,16.66
2018-10-17T18:53:25.731Z,16.61
2018-10-17T18:55:53.840Z,16.57
2018-10-17T18:58:21.906Z,16.54
2018-10-17T19:00:49.994Z,16.52
2018-10-17T19:03:18.135Z,16.47
2018-10-17T19:05:46.294Z,16.45
2018-10-17T19:08:14.496Z,16.40
2018-10-17T19:10:42.626Z,16.37
2018-10-17T19:13:10.707Z,16.35
2018-10-17T19:15:38.871Z,16.31
2018-10-17T19:18:07.097Z,16.28
2018-10-17T19:20:35.178Z,16.26
2018-10-17T19:23:03.256Z,16.23
2018-10-17T19:25:31.344Z,16.18
2018-10-17T19:27:59.423Z,16.13
2018-10-17T19:30:27.504Z,16.09
2018-10-17T19:32:55.637Z,16.06
2018-10-17T19:35:23.675Z,16.03
2018-10-17T19:37:51.815Z,16.01
2018-10-17T19:40:19.909Z,15.99
2018-10-17T19:42:47.990Z,15.97
2018-10-17T19:45:16.154Z,15.94
2018-10-17T19:47:44.184Z,15.91
2018-10-17T19:50:12.253Z,15.90
2018-10-17T19:52:40.326Z,15.88
2018-10-17T19:55:09.312Z,15.88
2018-10-17T19:57:37.410Z,15.86
2018-10-17T20:00:07.300Z,15.83
2018-10-17T20:02:35.417Z,15.81
2018-10-17T20:05:03.515Z,15.79
2018-10-17T20:07:31.641Z,15.76
2018-10-17T20:09:59.693Z,15.72
2018-10-17T20:12:27.849Z,15.70
2018-10-17T20:14:55.928Z,15.69
2018-10-17T20:17:24.007Z,15.67
2018-10-17T20:19:52.123Z,15.63
2018-10-17T20:22:21.629Z,15.59
2018-10-17T20:24:49.671Z,15.55
2018-10-17T20:27:17.808Z,15.50
2018-10-17T20:29:45.955Z,15.45
2018-10-17T20:32:14.038Z,15.42
2018-10-17T20:34:42.115Z,15.39
2018-10-17T20:37:10.204Z,15.39
2018-10-17T20:39:38.277Z,15.38
2018-10-17T20:42:06.709Z,15.36
2018-10-17T20:44:34.801Z,15.37
2018-10-17T20:47:02.887Z,15.35
2018-10-17T20:49:30.986Z,15.32
2018-10-17T20:51:59.069Z,15.31
2018-10-17T20:54:27.192Z,15.28
2018-10-17T20:56:55.279Z,15.27
2018-10-17T20:59:23.355Z,15.25
2018-10-17T21:01:51.454Z,15.23
2018-10-17T21:04:19.506Z,15.22
2018-10-17T21:06:47.631Z,15.20
2018-10-17T21:09:15.889Z,15.17
2018-10-17T21:11:44.012Z,15.16
2018-10-17T21:14:12.329Z,15.14
2018-10-17T21:16:41.219Z,15.14
2018-10-17T21:19:09.613Z,15.10
2018-10-17T21:21:37.698Z,15.08
2018-10-17T21:24:06.079Z,15.04
2018-10-17T21:26:34.336Z,15.01
2018-10-17T21:29:02.618Z,14.99
2018-10-17T21:31:30.690Z,14.96
2018-10-17T21:33:58.770Z,14.92
2018-10-17T21:36:26.848Z,14.88
2018-10-17T21:38:54.931Z,14.85
2018-10-17T21:41:23.014Z,14.81
2018-10-17T21:43:51.100Z,14.77
2018-10-17T21:46:19.176Z,14.75
2018-10-17T21:48:47.260Z,14.73
2018-10-17T21:51:15.335Z,14.69
2018-10-17T21:53:43.547Z,14.69
2018-10-17T21:56:11.700Z,14.66
2018-10-17T21:58:39.816Z,14.62
2018-10-17T22:01:08.163Z,14.60
2018-10-17T22:03:36.292Z,14.56
2018-10-17T22:06:04.375Z,14.54
2018-10-17T22:08:32.509Z,14.53
2018-10-17T22:11:00.595Z,14.52
2018-10-17T22:13:28.698Z,14.48
2018-10-17T22:15:56.835Z,14.50
2018-10-17T22:18:24.899Z,14.49
2018-10-17T22:20:52.972Z,14.48
2018-10-17T22:23:21.036Z,14.46
2018-10-17T22:25:49.167Z,14.46
2018-10-17T22:28:17.228Z,14.42
2018-10-17T22:30:45.306Z,14.41
2018-10-17T22:33:13.366Z,14.38
2018-10-17T22:35:41.439Z,14.35
2018-10-17T22:38:09.503Z,14.34
2018-10-17T22:40:37.571Z,14.32
2018-10-17T22:43:06.096Z,14.29
2018-10-17T22:45:34.200Z,14.27
2018-10-17T22:48:02.259Z,14.26
2018-10-17T22:50:30.332Z,14.23
2018-10-17T22:52:58.390Z,14.21
2018-10-17T22:55:26.591Z,14.18
2018-10-17T22:57:54.517Z,14.16
2018-10-17T23:00:22.590Z,14.15
2018-10-17T23:02:50.656Z,14.13
2018-10-17T23:05:18.812Z,14.12
2018-10-17T23:07:46.870Z,14.10
2018-10-17T23:10:14.956Z,14.08
2018-10-17T23:12:43.059Z,14.06
2018-10-17T23:15:13.011Z,14.05
2018-10-17T23:17:41.080Z,14.04
2018-10-17T23:20:09.317Z,14.01
2018-10-17T23:22:37.450Z,13.99
2018-10-17T23:25:06.547Z,13.95
2018-10-17T23:27:34.640Z,13.92
2018-10-17T23:30:02.712Z,13.88
2018-10-17T23:32:30.788Z,13.86
2018-10-17T23:34:58.856Z,13.83
2018-10-17T23:37:26.928Z,13.81
2018-10-17T23:39:55.094Z,13.79
2018-10-17T23:42:23.202Z,13.75
2018-10-17T23:44:51.240Z,13.74
2018-10-17T23:47:19.315Z,13.72
2018-10-17T23:49:47.562Z,13.69
2018-10-17T23:52:16.043Z,13.68
2018-10-17T23:54:44.188Z,13.66
2018-10-17T23:57:12.254Z,13.65
2018-10-17T23:59:40.322Z,13.64
